createdAt,value
2023-04-15T00:01:06.892Z,56.16
2023-04-15T00:03:34.466Z,55.68
2023-04-15T00:06:01.643Z,56.03
2023-04-15T00:08:28.726Z,56.15
2023-04-15T00:10:55.195Z,56.16
2023-04-15T00:13:21.601Z,56.08
2023-04-15T00:15:48.045Z,56.18
2023-04-15T00:18:14.451Z,56.31
2023-04-15T00:20:41.549Z,56.12
2023-04-15T00:23:07.950Z,56.07
2023-04-15T00:25:34.331Z,56.45
2023-04-15T00:28:00.713Z,56.51
2023-04-15T00:30:27.186Z,56.27
2023-04-15T00:32:53.746Z,56.37
2023-04-15T00:35:20.609Z,56.53
2023-04-15T00:37:46.922Z,56.70
2023-04-15T00:40:14.025Z,56.91
2023-04-15T00:42:40.890Z,56.80
2023-04-15T00:45:08.642Z,56.68
2023-04-15T00:47:37.701Z,56.96
2023-04-15T00:50:04.884Z,56.83
2023-04-15T00:52:32.005Z,56.82
2023-04-15T00:54:58.943Z,56.87
2023-04-15T00:57:26.993Z,57.11
2023-04-15T00:59:54.146Z,57.08
2023-04-15T01:02:21.113Z,57.32
2023-04-15T01:04:47.594Z,57.22
2023-04-15T01:07:14.203Z,57.28
2023-04-15T01:09:41.425Z,57.41
2023-04-15T01:12:12.016Z,57.47
2023-04-15T01:14:38.709Z,57.41
2023-04-15T01:17:05.116Z,57.46
2023-04-15T01:19:31.692Z,57.70
2023-04-15T01:21:58.258Z,57.63
2023-04-15T01:24:27.140Z,57.50
2023-04-15T01:26:54.016Z,57.64
2023-04-15T01:29:20.827Z,57.61
2023-04-15T01:31:55.013Z,58.09
2023-04-15T01:34:22.221Z,57.90
2023-04-15T01:36:48.746Z,58.01
2023-04-15T01:39:15.198Z,58.00
2023-04-15T01:41:42.344Z,58.17
2023-04-15T01:44:08.828Z,57.85
2023-04-15T01:46:35.820Z,57.99
2023-04-15T01:49:02.471Z,57.81
2023-04-15T01:51:29.080Z,57.89
2023-04-15T01:53:56.942Z,58.00
2023-04-15T01:56:26.435Z,58.07
2023-04-15T01:58:52.974Z,58.15
2023-04-15T02:01:19.885Z,57.95
2023-04-15T02:03:47.663Z,58.30
2023-04-15T02:06:14.357Z,58.23
2023-04-15T02:08:40.946Z,58.28
2023-04-15T02:11:07.360Z,58.42
2023-04-15T02:13:33.698Z,58.50
2023-04-15T02:16:00.003Z,58.44
2023-04-15T02:18:26.413Z,58.77
2023-04-15T02:20:52.824Z,58.60
2023-04-15T02:23:19.153Z,58.92
2023-04-15T02:25:54.097Z,58.86
2023-04-15T02:28:21.634Z,58.79
2023-04-15T02:30:52.456Z,58.75
2023-04-15T02:33:19.157Z,58.90
2023-04-15T02:35:45.786Z,58.82
2023-04-15T02:38:12.449Z,58.99
2023-04-15T02:40:38.957Z,58.88
2023-04-15T02:43:06.944Z,59.22
2023-04-15T02:45:33.794Z,59.11
2023-04-15T02:48:03.837Z,59.20
2023-04-15T02:50:31.519Z,59.36
2023-04-15T02:52:57.847Z,59.20
2023-04-15T02:55:24.206Z,59.24
2023-04-15T02:57:50.677Z,59.45
2023-04-15T03:00:17.020Z,59.37
2023-04-15T03:02:46.097Z,59.63
2023-04-15T03:05:13.840Z,59.49
2023-04-15T03:07:42.964Z,59.33
2023-04-15T03:10:10.370Z,59.17
2023-04-15T03:12:36.673Z,59.52
2023-04-15T03:15:03.557Z,59.54
2023-04-15T03:17:29.919Z,59.73
2023-04-15T03:19:56.312Z,59.77
2023-04-15T03:22:22.738Z,59.55
2023-04-15T03:24:49.074Z,59.97
2023-04-15T03:27:15.400Z,59.57
2023-04-15T03:29:41.692Z,59.67
2023-04-15T03:32:08.002Z,59.87
2023-04-15T03:34:34.367Z,59.56
2023-04-15T03:37:01.025Z,59.75
2023-04-15T03:39:27.360Z,59.91
2023-04-15T03:41:53.694Z,59.61
2023-04-15T03:44:20.207Z,59.92
2023-04-15T03:46:46.584Z,59.79
2023-04-15T03:49:14.099Z,59.95
2023-04-15T03:51:40.644Z,59.98
2023-04-15T03:54:07.009Z,60.12
2023-04-15T03:56:33.685Z,60.23
2023-04-15T03:59:00.497Z,60.45
2023-04-15T04:01:27.071Z,60.22
2023-04-15T04:03:53.789Z,60.44
2023-04-15T04:06:20.449Z,60.76
2023-04-15T04:08:46.823Z,60.88
2023-04-15T04:11:13.289Z,60.58
2023-04-15T04:13:39.606Z,61.19
2023-04-15T04:16:06.333Z,60.77
2023-04-15T04:18:32.885Z,60.86
2023-04-15T04:21:01.265Z,61.12
2023-04-15T04:23:27.660Z,60.97
2023-04-15T04:25:53.989Z,61.15
2023-04-15T04:30:58.211Z,61.01
2023-04-15T04:33:24.790Z,60.79
2023-04-15T04:35:51.612Z,61.03
2023-04-15T04:38:18.038Z,60.73
2023-04-15T04:40:44.507Z,60.75
2023-04-15T04:43:11.069Z,60.94
2023-04-15T04:45:37.720Z,60.98
2023-04-15T04:48:07.249Z,61.19
2023-04-15T04:50:34.542Z,61.17
2023-04-15T04:53:01.581Z,61.22
2023-04-15T04:55:29.225Z,60.81
2023-04-15T04:57:55.707Z,61.14
2023-04-15T05:00:22.818Z,61.29
2023-04-15T05:02:49.440Z,61.35
2023-04-15T05:05:16.257Z,61.27
2023-04-15T05:07:42.716Z,61.22
2023-04-15T05:10:09.541Z,61.74
2023-04-15T05:12:37.464Z,61.49
2023-04-15T05:15:05.044Z,61.77
2023-04-15T05:17:33.299Z,61.62
2023-04-15T05:19:59.930Z,61.83
2023-04-15T05:22:26.800Z,62.01
2023-04-15T05:24:53.333Z,62.10
2023-04-15T05:27:19.863Z,61.63
2023-04-15T05:29:46.827Z,61.81
2023-04-15T05:32:13.647Z,61.72
2023-04-15T05:34:40.494Z,61.93
2023-04-15T05:37:07.036Z,62.27
2023-04-15T05:39:34.016Z,62.16
2023-04-15T05:42:00.759Z,62.27
2023-04-15T05:44:27.270Z,62.19
2023-04-15T05:46:53.733Z,62.10
2023-04-15T05:49:20.362Z,62.06
2023-04-15T05:51:48.222Z,62.15
2023-04-15T05:54:14.749Z,62.24
2023-04-15T05:56:41.546Z,62.07
2023-04-15T05:59:08.713Z,62.15
2023-04-15T06:01:35.534Z,62.26
2023-04-15T06:04:02.115Z,62.39
2023-04-15T06:06:28.755Z,62.32
2023-04-15T06:08:56.011Z,62.17
2023-04-15T06:11:22.545Z,62.52
2023-04-15T06:13:49.212Z,62.58
2023-04-15T06:16:15.834Z,62.57
2023-04-15T06:18:42.342Z,62.28
2023-04-15T06:21:08.912Z,62.43
2023-04-15T06:23:36.756Z,62.86
2023-04-15T06:26:03.799Z,62.20
2023-04-15T06:28:30.494Z,62.49
2023-04-15T06:30:57.101Z,62.42
2023-04-15T06:33:23.698Z,62.50
2023-04-15T06:35:50.303Z,62.65
2023-04-15T06:38:16.865Z,62.47
2023-04-15T06:40:43.439Z,62.47
2023-04-15T06:43:10.203Z,62.55
2023-04-15T06:45:36.696Z,62.50
2023-04-15T06:48:03.377Z,62.47
2023-04-15T06:50:30.031Z,62.41
2023-04-15T06:52:57.225Z,62.18
2023-04-15T06:55:23.740Z,62.52
2023-04-15T06:57:50.306Z,62.47
2023-04-15T07:00:17.584Z,62.40
2023-04-15T07:02:44.865Z,62.65
2023-04-15T07:05:11.494Z,62.47
2023-04-15T07:07:38.493Z,62.31
2023-04-15T07:10:17.115Z,62.56
2023-04-15T07:12:43.780Z,62.49
2023-04-15T07:15:10.772Z,62.50
2023-04-15T07:17:37.347Z,62.48
2023-04-15T07:20:05.064Z,62.60
2023-04-15T07:22:31.528Z,62.57
2023-04-15T07:25:01.456Z,62.78
2023-04-15T07:27:28.037Z,62.68
2023-04-15T07:29:54.870Z,62.72
2023-04-15T07:32:21.366Z,62.49
2023-04-15T07:34:47.966Z,62.76
2023-04-15T07:37:15.104Z,62.71
2023-04-15T07:39:41.824Z,62.79
2023-04-15T07:42:11.358Z,62.94
2023-04-15T07:44:37.978Z,62.92
2023-04-15T07:47:04.616Z,63.03
2023-04-15T07:49:31.534Z,62.97
2023-04-15T07:52:00.051Z,63.01
2023-04-15T07:54:27.451Z,63.02
2023-04-15T07:56:54.299Z,63.05
2023-04-15T07:59:21.540Z,63.13
2023-04-15T08:01:48.340Z,63.21
2023-04-15T08:04:14.961Z,63.34
2023-04-15T08:06:41.664Z,63.35
2023-04-15T08:09:08.280Z,63.14
2023-04-15T08:11:34.770Z,63.30
2023-04-15T08:14:01.896Z,63.26
2023-04-15T08:16:28.620Z,63.42
2023-04-15T08:18:56.732Z,63.49
2023-04-15T08:21:23.984Z,63.57
2023-04-15T08:23:56.808Z,63.64
2023-04-15T08:26:23.385Z,63.64
2023-04-15T08:28:49.953Z,63.50
2023-04-15T08:31:17.713Z,63.81
2023-04-15T08:33:44.407Z,64.01
2023-04-15T08:36:11.115Z,63.89
2023-04-15T08:38:38.025Z,63.83
2023-04-15T08:41:08.401Z,64.12
2023-04-15T08:43:39.840Z,63.91
2023-04-15T08:46:07.332Z,64.09
2023-04-15T08:48:35.818Z,64.09
2023-04-15T08:51:03.089Z,64.14
2023-04-15T08:53:30.654Z,64.32
2023-04-15T08:56:00.186Z,64.43
2023-04-15T08:58:27.101Z,64.47
2023-04-15T09:00:54.002Z,64.36
2023-04-15T09:03:22.830Z,64.38
2023-04-15T09:05:52.141Z,64.49
2023-04-15T09:08:19.817Z,64.46
2023-04-15T09:10:46.432Z,64.69
2023-04-15T09:13:13.687Z,64.72
2023-04-15T09:15:40.445Z,64.75
2023-04-15T09:18:07.147Z,64.72
2023-04-15T09:20:42.997Z,64.91
2023-04-15T09:23:14.226Z,64.69
2023-04-15T09:25:45.353Z,64.50
2023-04-15T09:28:11.850Z,64.63
2023-04-15T09:30:38.410Z,64.85
2023-04-15T09:33:08.982Z,64.82
2023-04-15T09:35:36.824Z,65.07
2023-04-15T09:38:05.854Z,64.91
2023-04-15T09:40:37.717Z,65.08
2023-04-15T09:43:06.107Z,65.36
2023-04-15T09:45:36.612Z,65.45
2023-04-15T09:48:35.285Z,65.42
2023-04-15T09:51:02.350Z,65.05
2023-04-15T09:53:36.723Z,64.95
2023-04-15T09:56:03.686Z,64.80
2023-04-15T09:58:33.361Z,65.12
2023-04-15T10:01:01.948Z,65.06
2023-04-15T10:03:31.892Z,65.09
2023-04-15T10:06:06.330Z,65.12
2023-04-15T10:08:34.941Z,64.96
2023-04-15T10:11:12.094Z,65.15
2023-04-15T10:13:39.215Z,64.91
2023-04-15T10:16:20.895Z,65.19
2023-04-15T10:18:51.492Z,65.23
2023-04-15T10:21:19.051Z,65.45
2023-04-15T10:23:46.081Z,65.53
2023-04-15T10:26:14.860Z,65.47
2023-04-15T10:28:42.113Z,65.66
2023-04-15T10:31:12.449Z,65.71
2023-04-15T10:33:39.956Z,65.81
2023-04-15T10:36:07.775Z,65.87
2023-04-15T10:38:42.501Z,65.82
2023-04-15T10:41:26.675Z,65.88
2023-04-15T10:43:55.215Z,65.67
2023-04-15T10:46:37.151Z,66.21
2023-04-15T10:49:12.484Z,66.14
2023-04-15T10:51:42.521Z,65.86
2023-04-15T10:54:14.564Z,65.93
2023-04-15T10:56:52.251Z,66.35
2023-04-15T10:59:19.232Z,65.84
2023-04-15T11:02:00.338Z,65.77
2023-04-15T11:04:58.758Z,65.77
2023-04-15T11:07:47.175Z,65.88
2023-04-15T11:10:13.549Z,65.71
2023-04-15T11:12:41.132Z,65.86
2023-04-15T11:15:32.407Z,66.00
2023-04-15T11:18:08.438Z,65.79
2023-04-15T11:20:35.186Z,65.79
2023-04-15T11:23:14.110Z,65.81
2023-04-15T11:25:42.997Z,65.89
2023-04-15T11:28:09.802Z,65.95
2023-04-15T11:30:37.510Z,66.12
2023-04-15T11:33:06.655Z,66.14
2023-04-15T11:35:33.584Z,66.17
2023-04-15T11:38:14.214Z,66.31
2023-04-15T11:40:43.838Z,66.24
2023-04-15T11:43:23.161Z,66.50
2023-04-15T11:45:51.502Z,66.45
2023-04-15T11:48:18.965Z,66.23
2023-04-15T11:50:45.984Z,66.38
2023-04-15T11:53:13.788Z,66.48
2023-04-15T11:55:48.480Z,66.64
2023-04-15T11:58:18.821Z,66.52
2023-04-15T12:00:57.520Z,66.67
2023-04-15T12:03:36.231Z,66.54
2023-04-15T12:06:07.953Z,66.48
2023-04-15T12:08:54.034Z,66.49
2023-04-15T12:11:27.363Z,66.20
2023-04-15T12:13:56.692Z,66.33
2023-04-15T12:16:24.686Z,66.41
2023-04-15T12:18:52.868Z,66.40
2023-04-15T12:21:21.415Z,66.33
2023-04-15T12:23:57.965Z,66.17
2023-04-15T12:26:31.918Z,66.14
2023-04-15T12:29:03.015Z,66.23
2023-04-15T12:31:30.463Z,66.23
2023-04-15T12:33:58.542Z,66.21
2023-04-15T12:36:25.213Z,66.33
2023-04-15T12:38:52.072Z,66.24
2023-04-15T12:41:18.697Z,66.33
2023-04-15T12:43:46.673Z,66.06
2023-04-15T12:46:13.900Z,66.47
2023-04-15T12:48:41.588Z,66.45
2023-04-15T12:51:08.128Z,66.56
2023-04-15T12:53:34.622Z,66.51
2023-04-15T12:56:01.350Z,66.71
2023-04-15T12:58:27.777Z,66.61
2023-04-15T13:00:54.229Z,66.70
2023-04-15T13:03:20.827Z,66.66
2023-04-15T13:05:47.319Z,66.60
2023-04-15T13:08:13.836Z,66.81
2023-04-15T13:10:42.345Z,66.78
2023-04-15T13:13:08.962Z,66.72
2023-04-15T13:15:35.499Z,66.69
2023-04-15T13:18:02.131Z,66.67
2023-04-15T13:20:28.673Z,66.71
2023-04-15T13:22:55.182Z,66.76
2023-04-15T13:25:21.794Z,66.94
2023-04-15T13:27:48.273Z,67.20
2023-04-15T13:30:14.737Z,67.20
2023-04-15T13:32:41.229Z,67.05
2023-04-15T13:35:08.111Z,67.06
2023-04-15T13:37:34.668Z,67.16
2023-04-15T13:40:01.717Z,67.11
2023-04-15T13:42:28.219Z,67.40
2023-04-15T13:44:54.685Z,67.37
2023-04-15T13:47:21.483Z,67.68
2023-04-15T13:49:48.203Z,67.35
2023-04-15T13:52:14.664Z,67.38
2023-04-15T13:54:41.042Z,67.48
2023-04-15T13:57:07.412Z,67.34
2023-04-15T13:59:34.828Z,67.62
2023-04-15T14:02:01.423Z,67.47
2023-04-15T14:04:27.973Z,67.25
2023-04-15T14:06:54.381Z,67.49
2023-04-15T14:09:26.246Z,67.58
2023-04-15T14:11:52.951Z,67.64
2023-04-15T14:14:19.306Z,67.50
2023-04-15T14:16:45.820Z,67.61
2023-04-15T14:19:12.332Z,67.61
2023-04-15T14:21:38.673Z,67.81
2023-04-15T14:24:05.450Z,67.72
2023-04-15T14:26:31.867Z,67.94
2023-04-15T14:28:58.322Z,67.77
2023-04-15T14:31:24.772Z,67.89
2023-04-15T14:33:51.332Z,67.93
2023-04-15T14:36:18.011Z,68.13
2023-04-15T14:38:44.342Z,68.07
2023-04-15T14:41:10.706Z,68.08
2023-04-15T14:43:37.274Z,68.06
2023-04-15T14:46:03.919Z,68.63
2023-04-15T14:48:31.839Z,68.40
2023-04-15T14:50:59.250Z,68.42
2023-04-15T14:53:25.586Z,68.44
2023-04-15T14:55:51.949Z,68.52
2023-04-15T14:58:18.260Z,68.47
2023-04-15T15:00:44.718Z,68.37
2023-04-15T15:03:14.897Z,68.64
2023-04-15T15:05:42.983Z,68.61
2023-04-15T15:08:09.959Z,68.68
2023-04-15T15:10:48.600Z,68.64
2023-04-15T15:13:16.072Z,68.55
2023-04-15T15:15:42.548Z,68.51
2023-04-15T15:18:09.044Z,68.52
2023-04-15T15:20:35.987Z,68.66
2023-04-15T15:23:02.381Z,68.66
2023-04-15T15:25:29.024Z,68.63
2023-04-15T15:27:56.087Z,68.58
2023-04-15T15:30:22.472Z,68.57
2023-04-15T15:32:48.870Z,68.68
2023-04-15T15:35:15.412Z,68.52
2023-04-15T15:37:42.487Z,68.59
2023-04-15T15:40:09.216Z,68.89
2023-04-15T15:42:35.692Z,68.74
2023-04-15T15:45:04.117Z,68.86
2023-04-15T15:47:30.656Z,68.77
2023-04-15T15:49:57.158Z,68.76
2023-04-15T15:52:23.581Z,68.68
2023-04-15T15:54:49.919Z,68.59
2023-04-15T15:57:16.267Z,68.68
2023-04-15T15:59:43.549Z,68.72
2023-04-15T16:02:11.613Z,68.84
2023-04-15T16:04:39.069Z,68.81
2023-04-15T16:07:05.826Z,68.73
2023-04-15T16:09:32.466Z,68.85
2023-04-15T16:11:59.103Z,68.75
2023-04-15T16:14:26.193Z,68.94
2023-04-15T16:16:53.672Z,68.82
2023-04-15T16:19:20.977Z,68.96
2023-04-15T16:21:48.175Z,68.93
2023-04-15T16:24:14.718Z,69.00
2023-04-15T16:26:41.719Z,69.20
2023-04-15T16:29:08.186Z,69.08
2023-04-15T16:31:35.689Z,69.25
2023-04-15T16:34:02.635Z,69.29
2023-04-15T16:36:29.120Z,69.20
2023-04-15T16:38:55.959Z,69.19
2023-04-15T16:41:22.580Z,69.00
2023-04-15T16:43:49.022Z,69.07
2023-04-15T16:46:15.756Z,69.17
2023-04-15T16:48:42.410Z,69.09
2023-04-15T16:51:09.034Z,69.13
2023-04-15T16:53:35.672Z,69.12
2023-04-15T16:56:02.212Z,69.13
2023-04-15T16:58:28.930Z,69.15
2023-04-15T17:00:55.759Z,69.13
2023-04-15T17:03:22.473Z,69.32
2023-04-15T17:05:49.008Z,69.13
2023-04-15T17:08:15.614Z,69.14
2023-04-15T17:10:42.142Z,69.34
2023-04-15T17:13:08.676Z,69.43
2023-04-15T17:15:35.290Z,69.57
2023-04-15T17:18:02.185Z,69.64
2023-04-15T17:20:29.859Z,69.32
2023-04-15T17:22:56.554Z,69.67
2023-04-15T17:25:23.307Z,69.74
2023-04-15T17:27:49.912Z,69.69
2023-04-15T17:30:16.660Z,69.57
2023-04-15T17:32:43.282Z,69.68
2023-04-15T17:35:10.293Z,69.76
2023-04-15T17:37:37.184Z,69.69
2023-04-15T17:40:06.017Z,69.57
2023-04-15T17:42:37.564Z,69.72
2023-04-15T17:45:04.405Z,69.80
2023-04-15T17:47:31.103Z,69.72
2023-04-15T17:49:57.702Z,69.86
2023-04-15T17:52:24.294Z,70.00
2023-04-15T17:55:08.931Z,70.44
2023-04-15T17:57:36.229Z,70.00
2023-04-15T18:00:02.801Z,70.05
2023-04-15T18:02:29.666Z,69.99
2023-04-15T18:05:03.960Z,70.06
2023-04-15T18:07:30.662Z,69.95
2023-04-15T18:09:57.261Z,70.04
2023-04-15T18:12:23.872Z,69.99
2023-04-15T18:14:50.588Z,70.05
2023-04-15T18:17:17.333Z,70.06
2023-04-15T18:19:44.055Z,70.30
2023-04-15T18:22:26.325Z,70.31
2023-04-15T18:24:54.572Z,70.38
2023-04-15T18:27:21.490Z,70.28
2023-04-15T18:29:48.066Z,70.37
2023-04-15T18:32:14.612Z,70.23
2023-04-15T18:34:42.899Z,70.21
2023-04-15T18:37:09.474Z,70.27
2023-04-15T18:39:36.071Z,70.35
2023-04-15T18:42:02.701Z,70.32
2023-04-15T18:44:29.200Z,70.25
2023-04-15T18:46:55.899Z,70.47
2023-04-15T18:49:22.489Z,70.33
2023-04-15T18:51:49.177Z,70.54
2023-04-15T18:54:16.527Z,70.28
2023-04-15T18:56:46.665Z,70.53
2023-04-15T18:59:28.950Z,70.33
2023-04-15T19:01:56.794Z,70.38
2023-04-15T19:04:23.461Z,69.99
2023-04-15T19:06:50.306Z,70.19
2023-04-15T19:09:17.015Z,70.34
2023-04-15T19:12:10.205Z,71.09
2023-04-15T19:14:36.897Z,70.42
2023-04-15T19:17:03.630Z,70.50
2023-04-15T19:19:30.303Z,70.58
2023-04-15T19:21:57.547Z,70.74
2023-04-15T19:24:24.219Z,70.60
2023-04-15T19:27:13.852Z,71.08
2023-04-15T19:29:40.750Z,70.68
2023-04-15T19:32:34.338Z,71.13
2023-04-15T19:35:01.333Z,70.75
2023-04-15T19:37:27.836Z,70.72
2023-04-15T19:40:15.214Z,71.16
2023-04-15T19:42:44.769Z,71.00
2023-04-15T19:45:11.464Z,70.73
2023-04-15T19:47:38.068Z,70.71
2023-04-15T19:50:07.267Z,70.84
2023-04-15T19:52:34.360Z,70.85
2023-04-15T19:55:00.821Z,70.93
2023-04-15T19:57:27.341Z,70.94
2023-04-15T19:59:53.870Z,71.00
2023-04-15T20:02:20.511Z,70.94
2023-04-15T20:05:09.774Z,71.45
2023-04-15T20:07:36.776Z,71.06
2023-04-15T20:10:12.324Z,71.21
2023-04-15T20:12:50.486Z,71.02
2023-04-15T20:15:23.966Z,71.22
2023-04-15T20:17:50.734Z,71.20
2023-04-15T20:20:17.298Z,71.20
2023-04-15T20:23:06.799Z,71.71
2023-04-15T20:25:42.330Z,71.19
2023-04-15T20:28:08.938Z,71.01
2023-04-15T20:30:35.771Z,71.07
2023-04-15T20:33:04.990Z,71.33
2023-04-15T20:35:31.586Z,71.16
2023-04-15T20:37:58.225Z,71.18
2023-04-15T20:40:24.807Z,71.16
2023-04-15T20:42:51.556Z,71.10
2023-04-15T20:45:18.166Z,71.36
2023-04-15T20:47:44.821Z,71.49
2023-04-15T20:50:11.945Z,71.53
2023-04-15T20:52:39.537Z,71.56
2023-04-15T20:55:07.279Z,71.58
2023-04-15T20:57:33.860Z,71.40
2023-04-15T21:00:00.516Z,71.68
2023-04-15T21:02:27.355Z,71.40
2023-04-15T21:04:54.042Z,71.48
2023-04-15T21:07:20.691Z,71.59
2023-04-15T21:09:47.508Z,71.48
2023-04-15T21:12:14.203Z,71.50
2023-04-15T21:14:40.785Z,71.63
2023-04-15T21:17:10.784Z,71.58
2023-04-15T21:19:38.327Z,71.65
2023-04-15T21:22:04.958Z,71.64
2023-04-15T21:24:32.006Z,71.78
2023-04-15T21:26:58.525Z,71.52
2023-04-15T21:29:25.811Z,71.55
2023-04-15T21:31:52.521Z,71.61
2023-04-15T21:34:19.173Z,71.74
2023-04-15T21:36:46.133Z,71.87
2023-04-15T21:39:16.190Z,71.69
2023-04-15T21:41:43.191Z,71.83
2023-04-15T21:44:09.771Z,71.79
2023-04-15T21:46:36.428Z,71.64
2023-04-15T21:49:03.709Z,71.71
2023-04-15T21:51:31.590Z,71.74
2023-04-15T21:53:58.660Z,71.82
2023-04-15T21:56:26.130Z,71.66
2023-04-15T21:58:56.789Z,71.89
2023-04-15T22:01:24.318Z,71.81
2023-04-15T22:03:51.471Z,71.80
2023-04-15T22:06:18.485Z,72.00
2023-04-15T22:08:55.886Z,71.87
2023-04-15T22:11:26.726Z,71.80
2023-04-15T22:13:54.430Z,72.02
2023-04-15T22:16:21.381Z,71.75
2023-04-15T22:18:47.992Z,71.67
2023-04-15T22:21:14.827Z,71.69
2023-04-15T22:23:41.478Z,71.97
2023-04-15T22:26:08.036Z,71.85
2023-04-15T22:28:34.646Z,71.75
2023-04-15T22:31:07.709Z,71.85
2023-04-15T22:33:34.084Z,71.76
2023-04-15T22:36:00.541Z,70.96
2023-04-15T22:38:26.970Z,71.31
2023-04-15T22:40:53.968Z,71.51
2023-04-15T22:43:20.432Z,71.54
2023-04-15T22:45:50.745Z,71.90
2023-04-15T22:48:17.968Z,71.66
2023-04-15T22:50:44.397Z,71.73
2023-04-15T22:53:10.878Z,71.73
2023-04-15T22:55:37.199Z,71.60
2023-04-15T22:58:03.732Z,71.68
2023-04-15T23:00:30.346Z,71.34
2023-04-15T23:02:56.755Z,71.55
2023-04-15T23:05:23.367Z,71.76
2023-04-15T23:07:49.851Z,71.72
2023-04-15T23:10:16.353Z,71.73
2023-04-15T23:12:42.768Z,71.80
2023-04-15T23:15:09.480Z,71.68
2023-04-15T23:17:35.899Z,71.65
2023-04-15T23:20:02.661Z,71.67
2023-04-15T23:22:29.074Z,71.60
2023-04-15T23:24:55.443Z,71.66
2023-04-15T23:27:22.791Z,71.62
2023-04-15T23:29:49.168Z,71.69
2023-04-15T23:32:15.594Z,71.60
2023-04-15T23:34:42.014Z,71.54
2023-04-15T23:37:08.426Z,71.64
2023-04-15T23:39:34.810Z,71.55
2023-04-15T23:42:01.678Z,71.44
2023-04-15T23:44:28.186Z,71.56
2023-04-15T23:46:54.639Z,71.45
2023-04-15T23:49:21.040Z,71.45
2023-04-15T23:51:47.503Z,71.59
2023-04-15T23:54:14.773Z,71.48
2023-04-15T23:56:41.158Z,71.35
2023-04-15T23:59:07.727Z,71.43
